Terminal Aerodrome Forecast
Issued by NWS Wilmington, OH

Current Version | Previous Version | Graphics & Text | Print | Product List | Glossary On
Versions: 1 2 3 4 5 6 7 8 9 10 11 12 13 14 15 16 17 18
000
FTUS41 KILN 141740
TAFDAY
TAF
KDAY 141740Z 1418/1518 19010KT P6SM SCT250
     FM150400 20012KT P6SM BKN060 WS020/22040KT
     FM151100 21014G20KT P6SM BKN040
     FM151400 22018G28KT P6SM -SHRA OVC035=

USA.gov is the U.S. government's official web portal to all federal, state and local government web resources and services.